createdAt,value
2022-08-26T00:00:24.489Z,46.80
2022-08-26T00:02:52.927Z,47.12
2022-08-26T00:05:22.883Z,46.90
2022-08-26T00:07:52.790Z,47.13
2022-08-26T00:10:22.012Z,47.61
2022-08-26T00:12:54.385Z,47.01
2022-08-26T00:15:24.051Z,47.30
2022-08-26T00:17:54.081Z,46.89
2022-08-26T00:20:28.138Z,47.42
2022-08-26T00:22:56.606Z,47.09
2022-08-26T00:25:25.464Z,47.35
2022-08-26T00:27:54.093Z,47.20
2022-08-26T00:30:27.984Z,47.22
2022-08-26T00:32:57.160Z,46.67
2022-08-26T00:35:28.987Z,46.93
2022-08-26T00:37:58.948Z,47.40
2022-08-26T00:40:33.246Z,47.27
2022-08-26T00:43:02.405Z,47.26
2022-08-26T00:45:43.611Z,46.92
2022-08-26T00:48:13.507Z,47.21
2022-08-26T00:50:50.215Z,47.32
2022-08-26T00:53:25.966Z,47.75
2022-08-26T00:56:00.862Z,48.00
2022-08-26T00:58:33.991Z,48.71
2022-08-26T01:01:02.757Z,48.18
2022-08-26T01:03:35.090Z,48.32
2022-08-26T01:06:12.562Z,48.28
2022-08-26T01:08:42.201Z,48.50
2022-08-26T01:11:12.185Z,48.58
2022-08-26T01:13:41.505Z,48.83
2022-08-26T01:16:14.750Z,48.88
2022-08-26T01:18:45.015Z,48.70
2022-08-26T01:21:30.989Z,49.17
2022-08-26T01:24:01.403Z,49.19
2022-08-26T01:26:34.410Z,49.54
2022-08-26T01:29:07.830Z,49.63
2022-08-26T01:31:41.809Z,49.60
2022-08-26T01:34:17.555Z,49.96
2022-08-26T01:36:51.054Z,50.01
2022-08-26T01:39:21.954Z,50.50
2022-08-26T01:41:54.409Z,50.48
2022-08-26T01:44:27.491Z,51.09
2022-08-26T01:46:57.233Z,51.07
2022-08-26T01:49:28.452Z,50.61
2022-08-26T01:52:00.588Z,51.23
2022-08-26T01:54:30.447Z,50.80
2022-08-26T01:56:59.912Z,50.80
2022-08-26T01:59:29.169Z,50.68
2022-08-26T02:01:57.997Z,50.51
2022-08-26T02:04:33.146Z,50.61
2022-08-26T02:07:06.167Z,50.40
2022-08-26T02:09:41.370Z,50.36
2022-08-26T02:12:12.033Z,50.39
2022-08-26T02:14:46.764Z,50.42
2022-08-26T02:17:15.897Z,50.76
2022-08-26T02:19:51.324Z,50.64
2022-08-26T02:22:22.522Z,50.80
2022-08-26T02:24:57.731Z,50.94
2022-08-26T02:27:32.245Z,51.56
2022-08-26T02:30:10.147Z,51.39
2022-08-26T02:32:40.085Z,51.55
2022-08-26T02:35:09.986Z,51.38
2022-08-26T02:37:38.489Z,51.64
2022-08-26T02:40:15.694Z,51.85
2022-08-26T02:42:44.117Z,51.73
2022-08-26T02:45:12.990Z,51.55
2022-08-26T02:47:45.146Z,51.91
2022-08-26T02:50:15.726Z,51.46
2022-08-26T02:52:44.979Z,51.86
2022-08-26T02:55:15.047Z,51.99
2022-08-26T02:57:43.651Z,52.10
2022-08-26T03:00:15.411Z,52.18
2022-08-26T03:02:43.848Z,52.23
2022-08-26T03:05:13.434Z,51.92
2022-08-26T03:07:41.812Z,52.04
2022-08-26T03:10:12.609Z,52.04
2022-08-26T03:12:42.429Z,52.02
2022-08-26T03:15:17.864Z,52.22
2022-08-26T03:17:49.079Z,52.41
2022-08-26T03:20:19.883Z,52.30
2022-08-26T03:22:51.417Z,52.58
2022-08-26T03:25:20.634Z,53.01
2022-08-26T03:27:51.496Z,53.42
2022-08-26T03:30:38.084Z,53.43
2022-08-26T03:33:07.684Z,53.17
2022-08-26T03:35:36.683Z,53.06
2022-08-26T03:38:08.242Z,53.20
2022-08-26T03:40:38.745Z,53.28
2022-08-26T03:43:11.881Z,52.99
2022-08-26T03:45:40.927Z,53.02
2022-08-26T03:48:11.712Z,52.97
2022-08-26T03:50:40.630Z,53.03
2022-08-26T03:53:13.206Z,53.07
2022-08-26T03:55:43.414Z,52.98
2022-08-26T03:58:14.427Z,52.83
2022-08-26T04:00:43.113Z,52.76
2022-08-26T04:03:14.727Z,52.81
2022-08-26T04:05:46.518Z,53.24
2022-08-26T04:08:14.996Z,53.50
2022-08-26T04:10:43.685Z,53.46
2022-08-26T04:13:13.830Z,53.80
2022-08-26T04:15:42.319Z,54.05
2022-08-26T04:18:10.740Z,54.21
2022-08-26T04:20:39.242Z,53.95
2022-08-26T04:23:07.833Z,53.76
2022-08-26T04:25:36.328Z,53.82
2022-08-26T04:28:08.991Z,53.62
2022-08-26T04:30:40.659Z,53.70
2022-08-26T04:33:13.491Z,54.23
2022-08-26T04:35:44.057Z,53.96
2022-08-26T04:38:12.633Z,53.94
2022-08-26T04:40:46.863Z,53.98
2022-08-26T04:43:15.739Z,53.73
2022-08-26T04:45:45.581Z,53.81
2022-08-26T04:48:16.719Z,53.80
2022-08-26T04:50:45.431Z,53.80
2022-08-26T04:53:18.191Z,54.13
2022-08-26T04:55:46.875Z,54.48
2022-08-26T04:58:18.282Z,54.50
2022-08-26T05:00:50.353Z,54.38
2022-08-26T05:03:19.846Z,54.25
2022-08-26T05:05:50.953Z,54.51
2022-08-26T05:08:22.245Z,54.67
2022-08-26T05:10:55.971Z,55.08
2022-08-26T05:13:28.042Z,55.07
2022-08-26T05:16:01.274Z,55.38
2022-08-26T05:18:30.022Z,55.47
2022-08-26T05:20:58.814Z,55.38
2022-08-26T05:23:27.296Z,55.88
2022-08-26T05:25:59.185Z,55.78
2022-08-26T05:28:29.675Z,55.61
2022-08-26T05:30:59.560Z,55.80
2022-08-26T05:33:29.358Z,55.63
2022-08-26T05:35:57.800Z,55.66
2022-08-26T05:38:30.291Z,55.67
2022-08-26T05:40:58.995Z,55.55
2022-08-26T05:43:27.861Z,55.95
2022-08-26T05:45:56.406Z,56.08
2022-08-26T05:48:26.153Z,55.99
2022-08-26T05:50:55.106Z,56.52
2022-08-26T05:53:26.254Z,55.94
2022-08-26T05:55:58.128Z,56.11
2022-08-26T05:58:27.082Z,55.90
2022-08-26T06:01:01.784Z,56.06
2022-08-26T06:03:34.565Z,55.86
2022-08-26T06:06:06.770Z,55.82
2022-08-26T06:08:36.096Z,55.63
2022-08-26T06:11:08.125Z,55.46
2022-08-26T06:13:48.425Z,55.68
2022-08-26T06:16:19.477Z,55.68
2022-08-26T06:18:50.661Z,55.38
2022-08-26T06:21:23.202Z,55.55
2022-08-26T06:24:14.399Z,55.42
2022-08-26T06:26:50.392Z,55.20
2022-08-26T06:29:24.679Z,54.92
2022-08-26T06:31:54.057Z,54.91
2022-08-26T06:34:29.909Z,54.96
2022-08-26T06:37:02.485Z,54.55
2022-08-26T06:39:32.265Z,54.75
2022-08-26T06:42:01.218Z,54.46
2022-08-26T06:44:32.464Z,54.80
2022-08-26T06:47:00.972Z,54.54
2022-08-26T06:49:30.811Z,54.59
2022-08-26T06:51:59.221Z,54.42
2022-08-26T06:54:28.809Z,53.93
2022-08-26T06:56:57.550Z,53.96
2022-08-26T06:59:27.185Z,52.96
2022-08-26T07:01:56.222Z,52.44
2022-08-26T07:04:25.062Z,51.19
2022-08-26T07:06:58.033Z,49.98
2022-08-26T07:09:30.338Z,49.17
2022-08-26T07:11:59.232Z,49.82
2022-08-26T07:14:27.726Z,49.67
2022-08-26T07:16:56.220Z,49.67
2022-08-26T07:19:30.368Z,49.82
2022-08-26T07:22:03.348Z,48.88
2022-08-26T07:24:33.146Z,49.15
2022-08-26T07:27:07.227Z,48.74
2022-08-26T07:29:39.453Z,48.46
2022-08-26T07:32:09.822Z,48.56
2022-08-26T07:34:39.697Z,46.52
2022-08-26T07:37:12.297Z,44.74
2022-08-26T07:39:41.686Z,42.98
2022-08-26T07:42:14.386Z,41.52
2022-08-26T07:44:44.498Z,40.40
2022-08-26T07:47:25.898Z,38.73
2022-08-26T07:49:56.837Z,38.28
2022-08-26T07:52:29.870Z,37.04
2022-08-26T07:55:01.520Z,36.02
2022-08-26T07:57:31.274Z,35.01
2022-08-26T08:00:00.707Z,35.98
2022-08-26T08:02:30.800Z,37.10
2022-08-26T08:04:59.844Z,35.81
2022-08-26T08:07:44.240Z,36.07
2022-08-26T08:10:19.137Z,35.60
2022-08-26T08:12:51.204Z,35.41
2022-08-26T08:15:24.233Z,36.33
2022-08-26T08:17:54.055Z,37.00
2022-08-26T08:20:27.154Z,37.06
2022-08-26T08:22:58.020Z,36.84
2022-08-26T08:25:26.443Z,35.88
2022-08-26T08:27:54.807Z,33.64
2022-08-26T08:30:24.467Z,33.16
2022-08-26T08:32:53.804Z,33.56
2022-08-26T08:35:23.996Z,34.52
2022-08-26T08:37:56.584Z,34.66
2022-08-26T08:40:28.051Z,34.60
2022-08-26T08:43:06.103Z,35.08
2022-08-26T08:45:38.502Z,35.67
2022-08-26T08:48:20.747Z,36.09
2022-08-26T08:51:05.148Z,36.61
2022-08-26T08:53:38.594Z,38.09
2022-08-26T08:56:16.261Z,38.51
2022-08-26T08:58:57.289Z,38.78
2022-08-26T09:01:52.266Z,38.76
2022-08-26T09:04:57.421Z,38.65
2022-08-26T09:07:34.527Z,38.78
2022-08-26T09:10:25.793Z,39.42
2022-08-26T09:12:54.553Z,38.92
2022-08-26T09:15:30.460Z,38.92
2022-08-26T09:18:09.142Z,39.11
2022-08-26T09:20:53.759Z,39.38
2022-08-26T09:23:22.169Z,39.53
2022-08-26T09:26:00.811Z,39.44
2022-08-26T09:28:32.431Z,39.22
2022-08-26T09:31:11.769Z,39.48
2022-08-26T09:33:42.193Z,39.44
2022-08-26T09:36:24.833Z,39.43
2022-08-26T09:38:54.348Z,38.47
2022-08-26T09:41:32.170Z,38.36
2022-08-26T09:44:14.529Z,38.19
2022-08-26T09:46:52.703Z,37.92
2022-08-26T09:49:36.023Z,38.35
2022-08-26T09:52:12.766Z,38.77
2022-08-26T09:54:42.089Z,39.20
2022-08-26T09:57:27.537Z,39.42
2022-08-26T09:59:57.811Z,38.11
2022-08-26T10:02:41.643Z,37.65
2022-08-26T10:05:28.940Z,37.40
2022-08-26T10:08:00.230Z,36.53
2022-08-26T10:10:34.799Z,37.08
2022-08-26T10:13:11.602Z,35.45
2022-08-26T10:15:50.672Z,34.43
2022-08-26T10:18:25.140Z,34.24
2022-08-26T10:21:07.288Z,34.01
2022-08-26T10:23:43.013Z,34.42
2022-08-26T10:26:17.692Z,35.00
2022-08-26T10:28:55.109Z,35.31
2022-08-26T10:31:30.419Z,35.49
2022-08-26T10:34:09.821Z,35.19
2022-08-26T10:37:15.883Z,36.60
2022-08-26T10:39:57.276Z,35.97
2022-08-26T10:42:35.275Z,36.06
2022-08-26T10:45:11.949Z,37.13
2022-08-26T10:47:49.986Z,35.98
2022-08-26T10:50:19.986Z,36.06
2022-08-26T10:53:00.217Z,36.79
2022-08-26T10:55:37.609Z,34.53
2022-08-26T10:58:26.165Z,35.73
2022-08-26T11:01:23.972Z,36.05
2022-08-26T11:04:02.941Z,35.00
2022-08-26T11:06:32.755Z,35.75
2022-08-26T11:09:02.882Z,38.14
2022-08-26T11:11:50.779Z,37.63
2022-08-26T11:14:53.291Z,36.88
2022-08-26T11:18:00.731Z,37.05
2022-08-26T11:20:41.734Z,37.84
2022-08-26T11:23:50.471Z,37.91
2022-08-26T11:26:36.319Z,38.27
2022-08-26T11:29:13.279Z,38.96
2022-08-26T11:31:57.249Z,39.49
2022-08-26T11:34:57.866Z,39.54
2022-08-26T11:37:34.320Z,41.06
2022-08-26T11:40:09.123Z,41.74
2022-08-26T11:42:42.742Z,41.87
2022-08-26T11:45:25.209Z,41.92
2022-08-26T11:47:54.703Z,42.49
2022-08-26T11:50:28.137Z,42.89
2022-08-26T11:53:02.335Z,42.79
2022-08-26T11:55:32.688Z,42.72
2022-08-26T11:58:04.821Z,43.25
2022-08-26T12:00:48.893Z,43.17
2022-08-26T12:03:21.533Z,43.20
2022-08-26T12:05:54.598Z,43.17
2022-08-26T12:08:27.902Z,43.06
2022-08-26T12:11:05.375Z,43.21
2022-08-26T12:13:38.974Z,43.05
2022-08-26T12:16:08.558Z,42.92
2022-08-26T12:18:40.156Z,43.38
2022-08-26T12:21:22.241Z,42.67
2022-08-26T12:23:55.930Z,42.33
2022-08-26T12:26:28.575Z,42.21
2022-08-26T12:29:00.279Z,42.89
2022-08-26T12:31:34.649Z,43.16
2022-08-26T12:34:07.088Z,42.99
2022-08-26T12:36:50.339Z,41.49
2022-08-26T12:39:29.649Z,41.37
2022-08-26T12:41:59.877Z,41.20
2022-08-26T12:44:39.205Z,41.55
2022-08-26T12:47:30.875Z,41.97
2022-08-26T12:50:11.612Z,42.54
2022-08-26T12:52:53.848Z,41.40
2022-08-26T12:55:25.825Z,41.39
2022-08-26T12:58:19.749Z,41.74
2022-08-26T13:00:50.162Z,40.99
2022-08-26T13:03:46.566Z,39.94
2022-08-26T13:06:29.733Z,41.24
2022-08-26T13:09:02.241Z,41.53
2022-08-26T13:11:34.786Z,39.10
2022-08-26T13:14:08.778Z,40.48
2022-08-26T13:16:39.617Z,41.26
2022-08-26T13:19:10.754Z,40.87
2022-08-26T13:21:47.760Z,41.34
2022-08-26T13:24:21.276Z,40.05
2022-08-26T13:26:50.769Z,39.30
2022-08-26T13:29:20.365Z,39.28
2022-08-26T13:31:49.329Z,39.54
2022-08-26T13:34:20.638Z,38.41
2022-08-26T13:36:50.397Z,38.58
2022-08-26T13:39:20.691Z,39.14
2022-08-26T13:41:49.879Z,39.21
2022-08-26T13:44:18.423Z,39.62
2022-08-26T13:46:47.030Z,38.94
2022-08-26T13:49:15.894Z,38.43
2022-08-26T13:51:44.292Z,37.05
2022-08-26T13:54:12.769Z,38.76
2022-08-26T13:56:42.518Z,37.56
2022-08-26T13:59:11.022Z,38.80
2022-08-26T14:01:40.167Z,39.41
2022-08-26T14:04:08.737Z,37.62
2022-08-26T14:06:37.429Z,38.81
2022-08-26T14:09:06.505Z,39.11
2022-08-26T14:11:53.929Z,39.87
2022-08-26T14:14:25.038Z,40.25
2022-08-26T14:16:59.379Z,40.45
2022-08-26T14:19:30.420Z,40.55
2022-08-26T14:22:00.940Z,40.62
2022-08-26T14:24:30.229Z,41.11
2022-08-26T14:26:58.634Z,40.43
2022-08-26T14:29:28.468Z,40.90
2022-08-26T14:31:58.684Z,41.26
2022-08-26T14:34:27.621Z,39.65
2022-08-26T14:36:56.352Z,39.94
2022-08-26T14:39:24.735Z,40.71
2022-08-26T14:41:57.071Z,40.55
2022-08-26T14:44:32.001Z,40.28
2022-08-26T14:47:03.536Z,40.82
2022-08-26T14:49:32.224Z,40.67
2022-08-26T14:52:01.073Z,40.35
2022-08-26T14:54:29.465Z,41.13
2022-08-26T14:57:02.128Z,39.82
2022-08-26T14:59:34.919Z,39.44
2022-08-26T15:02:04.631Z,39.84
2022-08-26T15:04:33.478Z,38.74
2022-08-26T15:07:03.261Z,39.16
2022-08-26T15:09:35.450Z,38.88
2022-08-26T15:12:05.087Z,38.86
2022-08-26T15:14:34.913Z,38.74
2022-08-26T15:17:03.375Z,38.47
2022-08-26T15:19:31.832Z,39.56
2022-08-26T15:22:00.283Z,40.69
2022-08-26T15:24:29.659Z,39.96
2022-08-26T15:26:59.000Z,40.20
2022-08-26T15:29:27.569Z,40.95
2022-08-26T15:31:57.661Z,40.95
2022-08-26T15:34:26.895Z,41.02
2022-08-26T15:36:55.942Z,42.16
2022-08-26T15:39:24.813Z,41.93
2022-08-26T15:41:53.221Z,42.99
2022-08-26T15:44:21.707Z,43.63
2022-08-26T15:46:53.337Z,44.36
2022-08-26T15:49:26.936Z,44.30
2022-08-26T15:51:55.666Z,44.80
2022-08-26T15:54:25.126Z,44.70
2022-08-26T15:56:53.817Z,44.99
2022-08-26T15:59:23.327Z,45.08
2022-08-26T16:01:52.257Z,45.09
2022-08-26T16:04:21.496Z,48.12
2022-08-26T16:06:52.206Z,48.51
2022-08-26T16:09:24.228Z,48.14
2022-08-26T16:11:53.010Z,48.30
2022-08-26T16:14:21.733Z,46.74
2022-08-26T16:16:50.880Z,47.46
2022-08-26T16:19:19.315Z,47.63
2022-08-26T16:21:48.059Z,47.82
2022-08-26T16:24:18.281Z,46.60
2022-08-26T16:26:46.656Z,47.44
2022-08-26T16:29:17.722Z,49.15
2022-08-26T16:31:47.640Z,50.35
2022-08-26T16:34:16.029Z,48.21
2022-08-26T16:36:44.498Z,47.62
2022-08-26T16:39:13.641Z,47.36
2022-08-26T16:41:44.228Z,48.00
2022-08-26T16:44:12.540Z,49.14
2022-08-26T16:46:41.202Z,48.31
2022-08-26T16:49:09.736Z,48.12
2022-08-26T16:51:38.579Z,47.57
2022-08-26T16:54:09.163Z,47.60
2022-08-26T16:56:38.789Z,48.61
2022-08-26T16:59:11.680Z,48.52
2022-08-26T17:01:40.161Z,48.12
2022-08-26T17:04:08.561Z,48.82
2022-08-26T17:06:38.218Z,48.81
2022-08-26T17:09:07.296Z,48.97
2022-08-26T17:11:36.415Z,49.46
2022-08-26T17:14:06.255Z,49.31
2022-08-26T17:16:36.221Z,49.36
2022-08-26T17:19:06.295Z,49.96
2022-08-26T17:21:36.668Z,51.34
2022-08-26T17:24:06.843Z,50.77
2022-08-26T17:26:37.019Z,49.76
2022-08-26T17:29:06.226Z,50.11
2022-08-26T17:31:35.960Z,50.45
2022-08-26T17:34:05.092Z,50.52
2022-08-26T17:36:33.909Z,51.01
2022-08-26T17:39:02.373Z,51.09
2022-08-26T17:41:30.801Z,51.08
2022-08-26T17:43:59.211Z,51.61
2022-08-26T17:46:27.961Z,51.55
2022-08-26T17:48:57.879Z,51.78
2022-08-26T17:51:26.992Z,52.25
2022-08-26T17:53:55.755Z,52.20
2022-08-26T17:56:27.325Z,52.16
2022-08-26T17:59:03.506Z,52.22
2022-08-26T18:01:32.806Z,52.71
2022-08-26T18:04:04.477Z,52.67
2022-08-26T18:06:34.353Z,52.35
2022-08-26T18:09:02.832Z,53.37
2022-08-26T18:11:32.562Z,53.15
2022-08-26T18:14:01.656Z,54.06
2022-08-26T18:16:34.141Z,54.02
2022-08-26T18:19:03.891Z,53.73
2022-08-26T18:21:32.371Z,54.30
2022-08-26T18:24:00.966Z,54.00
2022-08-26T18:26:33.109Z,54.38
2022-08-26T18:29:02.015Z,54.21
2022-08-26T18:31:31.412Z,54.32
2022-08-26T18:34:01.623Z,54.16
2022-08-26T18:36:33.835Z,54.85
2022-08-26T18:39:02.994Z,54.00
2022-08-26T18:41:34.024Z,54.70
2022-08-26T18:44:02.417Z,54.46
2022-08-26T18:46:30.844Z,55.00
2022-08-26T18:48:59.831Z,54.93
2022-08-26T18:51:32.930Z,56.08
2022-08-26T18:54:04.077Z,56.05
2022-08-26T18:56:33.782Z,56.90
2022-08-26T18:59:02.660Z,56.89
2022-08-26T19:01:32.266Z,57.37
2022-08-26T19:04:02.823Z,57.53
2022-08-26T19:06:35.477Z,58.23
2022-08-26T19:09:06.772Z,57.94
2022-08-26T19:11:42.314Z,58.78
2022-08-26T19:14:16.704Z,59.58
2022-08-26T19:16:48.670Z,59.93
2022-08-26T19:19:17.725Z,59.65
2022-08-26T19:21:47.843Z,59.03
2022-08-26T19:24:18.972Z,59.21
2022-08-26T19:26:49.457Z,59.19
2022-08-26T19:29:20.348Z,59.89
2022-08-26T19:31:48.913Z,59.08
2022-08-26T19:34:18.330Z,58.62
2022-08-26T19:36:53.100Z,58.87
2022-08-26T19:39:21.765Z,58.55
2022-08-26T19:41:50.381Z,58.58
2022-08-26T19:44:35.465Z,58.95
2022-08-26T19:47:04.733Z,59.01
2022-08-26T19:49:33.474Z,58.86
2022-08-26T19:52:03.558Z,58.62
2022-08-26T19:54:31.990Z,58.58
2022-08-26T19:57:00.443Z,59.03
2022-08-26T19:59:29.053Z,58.92
2022-08-26T20:02:01.490Z,59.30
2022-08-26T20:04:30.723Z,59.69
2022-08-26T20:07:00.538Z,59.62
2022-08-26T20:09:31.232Z,59.63
2022-08-26T20:11:59.960Z,59.37
2022-08-26T20:14:29.858Z,59.28
2022-08-26T20:16:58.511Z,59.24
2022-08-26T20:19:44.719Z,59.57
2022-08-26T20:22:14.165Z,59.63
2022-08-26T20:24:45.430Z,59.77
2022-08-26T20:27:15.405Z,59.89
2022-08-26T20:29:43.949Z,59.86
2022-08-26T20:32:13.006Z,60.17
2022-08-26T20:34:41.724Z,60.53
2022-08-26T20:37:10.180Z,60.01
2022-08-26T20:39:38.724Z,60.23
2022-08-26T20:42:19.926Z,59.72
2022-08-26T20:44:51.349Z,60.03
2022-08-26T20:47:23.764Z,60.21
2022-08-26T20:49:52.624Z,60.36
2022-08-26T20:52:21.693Z,60.08
2022-08-26T20:54:50.104Z,60.48
2022-08-26T20:57:19.948Z,60.53
2022-08-26T20:59:48.529Z,60.42
2022-08-26T21:02:17.100Z,60.74
2022-08-26T21:04:45.581Z,60.84
2022-08-26T21:07:14.075Z,60.94
2022-08-26T21:09:42.689Z,61.36
2022-08-26T21:12:12.332Z,61.22
2022-08-26T21:14:43.979Z,61.02
2022-08-26T21:17:15.218Z,61.02
2022-08-26T21:19:44.443Z,61.06
2022-08-26T21:22:12.899Z,61.57
2022-08-26T21:24:41.274Z,61.33
2022-08-26T21:27:09.728Z,60.86
2022-08-26T21:29:38.236Z,61.17
2022-08-26T21:32:08.355Z,61.60
2022-08-26T21:34:40.736Z,61.53
2022-08-26T21:37:16.457Z,61.46
2022-08-26T21:39:45.573Z,62.09
2022-08-26T21:42:14.098Z,62.25
2022-08-26T21:44:42.752Z,62.15
2022-08-26T21:47:14.326Z,62.21
2022-08-26T21:49:44.070Z,62.32
2022-08-26T21:52:13.091Z,61.96
2022-08-26T21:54:41.571Z,61.88
2022-08-26T21:57:18.337Z,62.68
2022-08-26T21:59:47.159Z,62.51
2022-08-26T22:02:17.096Z,62.21
2022-08-26T22:04:48.840Z,62.15
2022-08-26T22:07:19.172Z,62.14
2022-08-26T22:09:48.647Z,62.18
2022-08-26T22:12:18.315Z,61.88
2022-08-26T22:14:47.069Z,61.95
2022-08-26T22:17:17.012Z,61.83
2022-08-26T22:19:46.125Z,62.20
2022-08-26T22:22:15.857Z,62.28
2022-08-26T22:24:44.379Z,62.73
2022-08-26T22:27:13.357Z,63.00
2022-08-26T22:29:42.312Z,62.46
2022-08-26T22:32:11.075Z,62.76
2022-08-26T22:34:41.883Z,62.05
2022-08-26T22:37:10.337Z,62.56
2022-08-26T22:39:39.189Z,62.53
2022-08-26T22:42:07.744Z,62.42
2022-08-26T22:44:37.027Z,62.61
2022-08-26T22:47:05.675Z,62.72
2022-08-26T22:49:33.988Z,62.37
2022-08-26T22:52:04.659Z,62.49
2022-08-26T22:54:33.094Z,62.79
2022-08-26T22:57:01.713Z,62.94
2022-08-26T22:59:30.117Z,62.89
2022-08-26T23:01:58.459Z,63.19
2022-08-26T23:04:26.895Z,63.68
2022-08-26T23:06:55.544Z,63.45
2022-08-26T23:09:25.316Z,62.73
2022-08-26T23:11:55.925Z,62.35
2022-08-26T23:14:26.183Z,62.28
2022-08-26T23:16:54.836Z,63.14
2022-08-26T23:19:24.471Z,62.64
2022-08-26T23:21:53.111Z,62.96
2022-08-26T23:24:22.059Z,62.82
2022-08-26T23:26:51.788Z,62.14
2022-08-26T23:29:20.198Z,63.71
2022-08-26T23:31:48.693Z,64.16
2022-08-26T23:34:34.493Z,63.86
2022-08-26T23:37:03.225Z,63.67
2022-08-26T23:39:35.301Z,63.63
2022-08-26T23:42:06.567Z,64.89
2022-08-26T23:44:35.341Z,63.83
2022-08-26T23:47:04.868Z,64.64
2022-08-26T23:49:34.201Z,64.81
2022-08-26T23:52:20.886Z,65.31
2022-08-26T23:54:50.951Z,65.93
2022-08-26T23:57:23.181Z,65.06
2022-08-26T23:59:53.099Z,65.44
